sensor_id;sensor_type;location;lat;lon;timestamp;P1;durP1;ratioP1;P2;durP2;ratioP2
60730;SDS011;46580;52.114;11.674;2023-03-03T00:01:22;20.60;;;8.80;;
60730;SDS011;46580;52.114;11.674;2023-03-03T00:03:51;20.47;;;9.33;;
60730;SDS011;46580;52.114;11.674;2023-03-03T00:06:16;20.47;;;8.60;;
60730;SDS011;46580;52.114;11.674;2023-03-03T00:08:42;21.40;;;9.57;;
60730;SDS011;46580;52.114;11.674;2023-03-03T00:11:07;18.93;;;8.63;;
60730;SDS011;46580;52.114;11.674;2023-03-03T00:13:43;16.17;;;7.00;;
60730;SDS011;46580;52.114;11.674;2023-03-03T00:16:20;16.93;;;7.47;;
60730;SDS011;46580;52.114;11.674;2023-03-03T00:18:49;19.60;;;7.93;;
60730;SDS011;46580;52.114;11.674;2023-03-03T00:21:31;12.63;;;7.17;;
60730;SDS011;46580;52.114;11.674;2023-03-03T00:26:38;15.50;;;7.73;;
60730;SDS011;46580;52.114;11.674;2023-03-03T00:29:28;21.97;;;8.23;;
60730;SDS011;46580;52.114;11.674;2023-03-03T00:32:21;18.03;;;7.27;;
60730;SDS011;46580;52.114;11.674;2023-03-03T00:35:22;15.93;;;8.40;;
60730;SDS011;46580;52.114;11.674;2023-03-03T00:37:52;15.57;;;7.40;;
60730;SDS011;46580;52.114;11.674;2023-03-03T00:40:21;17.80;;;7.93;;
60730;SDS011;46580;52.114;11.674;2023-03-03T00:42:52;21.57;;;8.57;;
60730;SDS011;46580;52.114;11.674;2023-03-03T00:47:52;19.03;;;8.60;;
60730;SDS011;46580;52.114;11.674;2023-03-03T00:50:31;25.20;;;7.63;;
60730;SDS011;46580;52.114;11.674;2023-03-03T00:53:06;21.80;;;8.90;;
60730;SDS011;46580;52.114;11.674;2023-03-03T00:55:36;24.13;;;8.00;;
60730;SDS011;46580;52.114;11.674;2023-03-03T00:58:02;24.33;;;8.43;;
60730;SDS011;46580;52.114;11.674;2023-03-03T01:00:29;24.20;;;8.40;;
60730;SDS011;46580;52.114;11.674;2023-03-03T01:02:54;23.57;;;9.13;;
60730;SDS011;46580;52.114;11.674;2023-03-03T01:05:20;20.77;;;9.00;;
60730;SDS011;46580;52.114;11.674;2023-03-03T01:07:45;23.90;;;9.43;;
60730;SDS011;46580;52.114;11.674;2023-03-03T01:10:12;24.20;;;8.53;;
60730;SDS011;46580;52.114;11.674;2023-03-03T01:12:39;21.20;;;9.67;;
60730;SDS011;46580;52.114;11.674;2023-03-03T01:15:05;21.63;;;8.83;;
60730;SDS011;46580;52.114;11.674;2023-03-03T01:17:32;18.37;;;8.63;;
60730;SDS011;46580;52.114;11.674;2023-03-03T01:19:58;21.20;;;9.63;;
60730;SDS011;46580;52.114;11.674;2023-03-03T01:22:25;24.77;;;9.23;;
60730;SDS011;46580;52.114;11.674;2023-03-03T01:24:51;20.93;;;8.57;;
60730;SDS011;46580;52.114;11.674;2023-03-03T01:27:17;20.40;;;9.47;;
60730;SDS011;46580;52.114;11.674;2023-03-03T01:29:42;22.90;;;9.87;;
60730;SDS011;46580;52.114;11.674;2023-03-03T01:32:08;21.27;;;9.33;;
60730;SDS011;46580;52.114;11.674;2023-03-03T01:34:33;20.20;;;8.33;;
60730;SDS011;46580;52.114;11.674;2023-03-03T01:36:58;22.93;;;9.57;;
60730;SDS011;46580;52.114;11.674;2023-03-03T01:39:25;23.83;;;10.27;;
60730;SDS011;46580;52.114;11.674;2023-03-03T01:41:50;23.07;;;9.60;;
60730;SDS011;46580;52.114;11.674;2023-03-03T01:44:17;23.23;;;9.60;;
60730;SDS011;46580;52.114;11.674;2023-03-03T01:49:13;22.53;;;8.60;;
60730;SDS011;46580;52.114;11.674;2023-03-03T01:51:54;17.83;;;8.70;;
60730;SDS011;46580;52.114;11.674;2023-03-03T01:54:27;16.43;;;7.60;;
60730;SDS011;46580;52.114;11.674;2023-03-03T01:56:56;19.43;;;8.70;;
60730;SDS011;46580;52.114;11.674;2023-03-03T01:59:25;15.87;;;7.87;;
60730;SDS011;46580;52.114;11.674;2023-03-03T02:01:55;19.10;;;8.20;;
60730;SDS011;46580;52.114;11.674;2023-03-03T02:04:21;21.50;;;8.60;;
60730;SDS011;46580;52.114;11.674;2023-03-03T02:06:49;17.87;;;8.37;;
60730;SDS011;46580;52.114;11.674;2023-03-03T02:09:26;23.53;;;9.20;;
60730;SDS011;46580;52.114;11.674;2023-03-03T02:11:56;26.40;;;9.77;;
60730;SDS011;46580;52.114;11.674;2023-03-03T02:14:24;21.93;;;9.23;;
60730;SDS011;46580;52.114;11.674;2023-03-03T02:16:49;25.03;;;9.30;;
60730;SDS011;46580;52.114;11.674;2023-03-03T02:19:30;25.47;;;9.73;;
60730;SDS011;46580;52.114;11.674;2023-03-03T02:22:01;22.77;;;8.93;;
60730;SDS011;46580;52.114;11.674;2023-03-03T02:24:34;23.33;;;9.33;;
60730;SDS011;46580;52.114;11.674;2023-03-03T02:27:06;22.80;;;8.70;;
60730;SDS011;46580;52.114;11.674;2023-03-03T02:29:32;25.13;;;9.00;;
60730;SDS011;46580;52.114;11.674;2023-03-03T02:31:57;23.77;;;9.37;;
60730;SDS011;46580;52.114;11.674;2023-03-03T02:34:23;22.37;;;9.27;;
60730;SDS011;46580;52.114;11.674;2023-03-03T02:36:48;25.73;;;9.37;;
60730;SDS011;46580;52.114;11.674;2023-03-03T02:44:45;21.60;;;8.90;;
60730;SDS011;46580;52.114;11.674;2023-03-03T02:47:10;21.07;;;9.50;;
60730;SDS011;46580;52.114;11.674;2023-03-03T02:49:36;16.90;;;7.97;;
60730;SDS011;46580;52.114;11.674;2023-03-03T02:52:04;17.87;;;8.63;;
60730;SDS011;46580;52.114;11.674;2023-03-03T02:54:34;19.03;;;8.63;;
60730;SDS011;46580;52.114;11.674;2023-03-03T02:57:00;26.80;;;9.47;;
60730;SDS011;46580;52.114;11.674;2023-03-03T02:59:25;31.17;;;9.20;;
60730;SDS011;46580;52.114;11.674;2023-03-03T03:01:51;21.33;;;9.67;;
60730;SDS011;46580;52.114;11.674;2023-03-03T03:04:18;23.47;;;10.40;;
60730;SDS011;46580;52.114;11.674;2023-03-03T03:06:45;19.20;;;9.00;;
60730;SDS011;46580;52.114;11.674;2023-03-03T03:09:12;29.23;;;10.10;;
60730;SDS011;46580;52.114;11.674;2023-03-03T03:11:39;27.20;;;10.07;;
60730;SDS011;46580;52.114;11.674;2023-03-03T03:14:08;22.03;;;9.97;;
60730;SDS011;46580;52.114;11.674;2023-03-03T03:16:34;21.90;;;9.63;;
60730;SDS011;46580;52.114;11.674;2023-03-03T03:19:01;24.53;;;10.70;;
60730;SDS011;46580;52.114;11.674;2023-03-03T03:21:28;22.03;;;9.20;;
60730;SDS011;46580;52.114;11.674;2023-03-03T03:23:55;28.80;;;10.57;;
60730;SDS011;46580;52.114;11.674;2023-03-03T03:26:21;25.30;;;10.53;;
60730;SDS011;46580;52.114;11.674;2023-03-03T03:28:48;25.97;;;10.27;;
60730;SDS011;46580;52.114;11.674;2023-03-03T03:31:16;26.73;;;10.60;;
60730;SDS011;46580;52.114;11.674;2023-03-03T03:33:42;26.30;;;10.13;;
60730;SDS011;46580;52.114;11.674;2023-03-03T03:36:09;25.47;;;9.87;;
60730;SDS011;46580;52.114;11.674;2023-03-03T03:38:35;24.43;;;10.13;;
60730;SDS011;46580;52.114;11.674;2023-03-03T03:41:01;20.80;;;9.90;;
60730;SDS011;46580;52.114;11.674;2023-03-03T03:43:28;24.27;;;10.03;;
60730;SDS011;46580;52.114;11.674;2023-03-03T03:45:54;22.73;;;9.60;;
60730;SDS011;46580;52.114;11.674;2023-03-03T03:48:19;22.10;;;9.73;;
60730;SDS011;46580;52.114;11.674;2023-03-03T03:50:47;20.70;;;9.50;;
60730;SDS011;46580;52.114;11.674;2023-03-03T03:53:13;23.97;;;10.17;;
60730;SDS011;46580;52.114;11.674;2023-03-03T03:55:39;26.27;;;10.43;;
60730;SDS011;46580;52.114;11.674;2023-03-03T03:58:04;24.57;;;9.50;;
60730;SDS011;46580;52.114;11.674;2023-03-03T04:00:31;23.77;;;10.50;;
60730;SDS011;46580;52.114;11.674;2023-03-03T04:02:57;23.37;;;9.70;;
60730;SDS011;46580;52.114;11.674;2023-03-03T04:05:23;20.93;;;8.83;;
60730;SDS011;46580;52.114;11.674;2023-03-03T04:07:48;20.20;;;9.67;;
60730;SDS011;46580;52.114;11.674;2023-03-03T04:10:14;27.10;;;10.40;;
60730;SDS011;46580;52.114;11.674;2023-03-03T04:12:39;27.10;;;10.23;;
60730;SDS011;46580;52.114;11.674;2023-03-03T04:15:06;27.60;;;10.87;;
60730;SDS011;46580;52.114;11.674;2023-03-03T04:17:36;26.80;;;10.37;;
60730;SDS011;46580;52.114;11.674;2023-03-03T04:20:04;24.03;;;10.20;;
60730;SDS011;46580;52.114;11.674;2023-03-03T04:22:30;24.83;;;10.33;;
60730;SDS011;46580;52.114;11.674;2023-03-03T04:25:01;24.37;;;10.80;;
60730;SDS011;46580;52.114;11.674;2023-03-03T04:27:32;22.60;;;10.13;;
60730;SDS011;46580;52.114;11.674;2023-03-03T04:30:02;22.50;;;10.30;;
60730;SDS011;46580;52.114;11.674;2023-03-03T04:32:29;24.90;;;11.27;;
60730;SDS011;46580;52.114;11.674;2023-03-03T04:34:57;25.60;;;10.13;;
60730;SDS011;46580;52.114;11.674;2023-03-03T04:37:23;27.77;;;10.80;;
60730;SDS011;46580;52.114;11.674;2023-03-03T04:39:49;22.10;;;9.10;;
60730;SDS011;46580;52.114;11.674;2023-03-03T04:42:15;25.50;;;11.20;;
60730;SDS011;46580;52.114;11.674;2023-03-03T04:44:41;21.40;;;10.80;;
60730;SDS011;46580;52.114;11.674;2023-03-03T04:47:07;22.13;;;9.70;;
60730;SDS011;46580;52.114;11.674;2023-03-03T04:49:33;21.47;;;10.77;;
60730;SDS011;46580;52.114;11.674;2023-03-03T04:51:59;23.43;;;10.43;;
60730;SDS011;46580;52.114;11.674;2023-03-03T04:54:25;14.47;;;6.60;;
60730;SDS011;46580;52.114;11.674;2023-03-03T04:56:51;16.87;;;9.23;;
60730;SDS011;46580;52.114;11.674;2023-03-03T04:59:17;21.80;;;9.87;;
60730;SDS011;46580;52.114;11.674;2023-03-03T05:01:43;20.03;;;9.17;;
60730;SDS011;46580;52.114;11.674;2023-03-03T05:04:11;20.83;;;9.63;;
60730;SDS011;46580;52.114;11.674;2023-03-03T05:06:36;18.47;;;8.83;;
60730;SDS011;46580;52.114;11.674;2023-03-03T05:09:04;22.13;;;10.47;;
60730;SDS011;46580;52.114;11.674;2023-03-03T05:11:30;18.60;;;7.30;;
60730;SDS011;46580;52.114;11.674;2023-03-03T05:13:56;20.43;;;8.57;;
60730;SDS011;46580;52.114;11.674;2023-03-03T05:16:21;22.87;;;9.90;;
60730;SDS011;46580;52.114;11.674;2023-03-03T05:18:47;26.23;;;9.93;;
60730;SDS011;46580;52.114;11.674;2023-03-03T05:21:13;17.80;;;8.53;;
60730;SDS011;46580;52.114;11.674;2023-03-03T05:23:39;17.00;;;8.97;;
60730;SDS011;46580;52.114;11.674;2023-03-03T05:26:04;21.20;;;9.57;;
60730;SDS011;46580;52.114;11.674;2023-03-03T05:28:32;29.43;;;11.40;;
60730;SDS011;46580;52.114;11.674;2023-03-03T05:30:57;23.67;;;9.87;;
60730;SDS011;46580;52.114;11.674;2023-03-03T05:33:23;27.87;;;10.90;;
60730;SDS011;46580;52.114;11.674;2023-03-03T05:35:52;20.63;;;9.27;;
60730;SDS011;46580;52.114;11.674;2023-03-03T05:38:19;21.73;;;9.90;;
60730;SDS011;46580;52.114;11.674;2023-03-03T05:40:46;22.17;;;10.13;;
60730;SDS011;46580;52.114;11.674;2023-03-03T05:43:11;22.57;;;10.63;;
60730;SDS011;46580;52.114;11.674;2023-03-03T05:45:37;22.30;;;10.73;;
60730;SDS011;46580;52.114;11.674;2023-03-03T05:48:03;25.87;;;10.63;;
60730;SDS011;46580;52.114;11.674;2023-03-03T05:50:29;22.13;;;9.50;;
60730;SDS011;46580;52.114;11.674;2023-03-03T05:52:56;19.90;;;9.30;;
60730;SDS011;46580;52.114;11.674;2023-03-03T05:55:22;26.80;;;9.80;;
60730;SDS011;46580;52.114;11.674;2023-03-03T05:57:47;17.50;;;8.53;;
60730;SDS011;46580;52.114;11.674;2023-03-03T06:00:13;21.83;;;8.97;;
60730;SDS011;46580;52.114;11.674;2023-03-03T06:02:40;20.67;;;9.57;;
60730;SDS011;46580;52.114;11.674;2023-03-03T06:05:06;20.90;;;9.90;;
60730;SDS011;46580;52.114;11.674;2023-03-03T06:07:32;20.67;;;10.00;;
60730;SDS011;46580;52.114;11.674;2023-03-03T06:09:57;21.30;;;9.80;;
60730;SDS011;46580;52.114;11.674;2023-03-03T06:12:23;22.73;;;9.73;;
60730;SDS011;46580;52.114;11.674;2023-03-03T06:14:48;22.00;;;9.70;;
60730;SDS011;46580;52.114;11.674;2023-03-03T06:17:15;22.33;;;10.30;;
60730;SDS011;46580;52.114;11.674;2023-03-03T06:19:41;25.30;;;10.23;;
60730;SDS011;46580;52.114;11.674;2023-03-03T06:22:07;25.07;;;10.77;;
60730;SDS011;46580;52.114;11.674;2023-03-03T06:24:33;23.37;;;9.70;;
60730;SDS011;46580;52.114;11.674;2023-03-03T06:27:00;19.27;;;10.13;;
60730;SDS011;46580;52.114;11.674;2023-03-03T06:29:26;24.27;;;10.57;;
60730;SDS011;46580;52.114;11.674;2023-03-03T06:31:52;24.57;;;10.43;;
60730;SDS011;46580;52.114;11.674;2023-03-03T06:34:18;21.67;;;10.33;;
60730;SDS011;46580;52.114;11.674;2023-03-03T06:36:43;20.60;;;9.67;;
60730;SDS011;46580;52.114;11.674;2023-03-03T06:39:09;22.30;;;10.53;;
60730;SDS011;46580;52.114;11.674;2023-03-03T06:41:34;19.30;;;8.90;;
60730;SDS011;46580;52.114;11.674;2023-03-03T06:44:00;21.57;;;10.53;;
60730;SDS011;46580;52.114;11.674;2023-03-03T06:46:25;20.03;;;9.37;;
60730;SDS011;46580;52.114;11.674;2023-03-03T06:48:51;22.07;;;9.47;;
60730;SDS011;46580;52.114;11.674;2023-03-03T06:51:31;21.30;;;9.80;;
60730;SDS011;46580;52.114;11.674;2023-03-03T06:54:00;18.37;;;8.77;;
60730;SDS011;46580;52.114;11.674;2023-03-03T06:56:30;19.93;;;8.47;;
60730;SDS011;46580;52.114;11.674;2023-03-03T06:59:00;18.90;;;8.40;;
60730;SDS011;46580;52.114;11.674;2023-03-03T07:01:33;12.67;;;7.70;;
60730;SDS011;46580;52.114;11.674;2023-03-03T07:04:00;17.17;;;7.97;;
60730;SDS011;46580;52.114;11.674;2023-03-03T07:06:25;15.63;;;7.47;;
60730;SDS011;46580;52.114;11.674;2023-03-03T07:08:52;18.77;;;10.23;;
60730;SDS011;46580;52.114;11.674;2023-03-03T07:11:20;19.67;;;9.23;;
60730;SDS011;46580;52.114;11.674;2023-03-03T07:13:48;19.73;;;8.40;;
60730;SDS011;46580;52.114;11.674;2023-03-03T07:16:15;16.20;;;8.57;;
60730;SDS011;46580;52.114;11.674;2023-03-03T07:18:46;18.33;;;9.30;;
60730;SDS011;46580;52.114;11.674;2023-03-03T07:21:20;24.83;;;11.10;;
60730;SDS011;46580;52.114;11.674;2023-03-03T07:23:56;23.53;;;11.13;;
60730;SDS011;46580;52.114;11.674;2023-03-03T07:26:24;22.17;;;10.73;;
60730;SDS011;46580;52.114;11.674;2023-03-03T07:28:55;23.73;;;10.37;;
60730;SDS011;46580;52.114;11.674;2023-03-03T07:31:28;22.00;;;9.97;;
60730;SDS011;46580;52.114;11.674;2023-03-03T07:34:03;19.53;;;11.00;;
60730;SDS011;46580;52.114;11.674;2023-03-03T07:36:40;25.67;;;11.20;;
60730;SDS011;46580;52.114;11.674;2023-03-03T07:41:55;26.23;;;11.30;;
60730;SDS011;46580;52.114;11.674;2023-03-03T07:44:33;25.07;;;12.53;;
60730;SDS011;46580;52.114;11.674;2023-03-03T07:47:11;30.57;;;12.60;;
60730;SDS011;46580;52.114;11.674;2023-03-03T07:49:43;25.10;;;11.50;;
60730;SDS011;46580;52.114;11.674;2023-03-03T07:52:24;23.93;;;11.93;;
60730;SDS011;46580;52.114;11.674;2023-03-03T07:54:52;27.90;;;12.07;;
60730;SDS011;46580;52.114;11.674;2023-03-03T07:59:51;23.43;;;12.77;;
60730;SDS011;46580;52.114;11.674;2023-03-03T08:02:28;31.13;;;12.83;;
60730;SDS011;46580;52.114;11.674;2023-03-03T08:05:11;31.77;;;13.23;;
60730;SDS011;46580;52.114;11.674;2023-03-03T08:07:49;33.03;;;12.50;;
60730;SDS011;46580;52.114;11.674;2023-03-03T08:10:49;34.10;;;14.40;;
60730;SDS011;46580;52.114;11.674;2023-03-03T08:13:14;30.43;;;13.27;;
60730;SDS011;46580;52.114;11.674;2023-03-03T08:15:42;28.90;;;14.33;;
60730;SDS011;46580;52.114;11.674;2023-03-03T08:18:16;32.43;;;14.20;;
60730;SDS011;46580;52.114;11.674;2023-03-03T08:20:48;26.90;;;12.73;;
60730;SDS011;46580;52.114;11.674;2023-03-03T08:23:15;26.77;;;11.80;;
60730;SDS011;46580;52.114;11.674;2023-03-03T08:25:42;28.17;;;12.40;;
60730;SDS011;46580;52.114;11.674;2023-03-03T08:28:09;21.47;;;10.70;;
60730;SDS011;46580;52.114;11.674;2023-03-03T08:30:36;27.87;;;12.63;;
60730;SDS011;46580;52.114;11.674;2023-03-03T08:33:03;25.47;;;11.63;;
60730;SDS011;46580;52.114;11.674;2023-03-03T08:35:30;23.90;;;11.07;;
60730;SDS011;46580;52.114;11.674;2023-03-03T08:37:55;32.23;;;14.90;;
60730;SDS011;46580;52.114;11.674;2023-03-03T08:40:22;32.53;;;15.40;;
60730;SDS011;46580;52.114;11.674;2023-03-03T08:42:47;41.23;;;15.57;;
60730;SDS011;46580;52.114;11.674;2023-03-03T08:45:14;34.80;;;15.47;;
60730;SDS011;46580;52.114;11.674;2023-03-03T08:47:39;28.83;;;12.73;;
60730;SDS011;46580;52.114;11.674;2023-03-03T08:50:07;38.77;;;15.30;;
60730;SDS011;46580;52.114;11.674;2023-03-03T08:52:33;32.90;;;16.27;;
60730;SDS011;46580;52.114;11.674;2023-03-03T08:54:59;32.33;;;15.40;;
60730;SDS011;46580;52.114;11.674;2023-03-03T08:57:24;32.73;;;13.67;;
60730;SDS011;46580;52.114;11.674;2023-03-03T08:59:51;34.17;;;14.50;;
60730;SDS011;46580;52.114;11.674;2023-03-03T09:02:17;23.20;;;10.87;;
60730;SDS011;46580;52.114;11.674;2023-03-03T09:04:43;22.70;;;10.60;;
60730;SDS011;46580;52.114;11.674;2023-03-03T09:07:09;19.30;;;9.87;;
60730;SDS011;46580;52.114;11.674;2023-03-03T09:09:35;27.17;;;12.33;;
60730;SDS011;46580;52.114;11.674;2023-03-03T09:12:44;24.07;;;12.57;;
60730;SDS011;46580;52.114;11.674;2023-03-03T09:14:56;29.07;;;13.00;;
60730;SDS011;46580;52.114;11.674;2023-03-03T09:17:28;23.90;;;12.03;;
60730;SDS011;46580;52.114;11.674;2023-03-03T09:19:58;29.03;;;12.43;;
60730;SDS011;46580;52.114;11.674;2023-03-03T09:22:27;28.33;;;13.77;;
60730;SDS011;46580;52.114;11.674;2023-03-03T09:24:56;27.13;;;13.03;;
60730;SDS011;46580;52.114;11.674;2023-03-03T09:27:33;27.37;;;13.60;;
60730;SDS011;46580;52.114;11.674;2023-03-03T09:30:10;28.97;;;13.43;;
60730;SDS011;46580;52.114;11.674;2023-03-03T09:32:51;29.63;;;11.83;;
60730;SDS011;46580;52.114;11.674;2023-03-03T09:38:50;27.17;;;12.90;;
60730;SDS011;46580;52.114;11.674;2023-03-03T10:03:55;27.37;;;13.50;;
60730;SDS011;46580;52.114;11.674;2023-03-03T10:06:39;29.13;;;12.37;;
60730;SDS011;46580;52.114;11.674;2023-03-03T10:15:26;25.37;;;11.33;;
60730;SDS011;46580;52.114;11.674;2023-03-03T10:20:56;26.37;;;11.90;;
60730;SDS011;46580;52.114;11.674;2023-03-03T10:28:51;25.23;;;11.93;;
60730;SDS011;46580;52.114;11.674;2023-03-03T10:47:27;21.23;;;10.77;;
60730;SDS011;46580;52.114;11.674;2023-03-03T10:53:18;23.60;;;9.80;;
60730;SDS011;46580;52.114;11.674;2023-03-03T11:01:18;22.17;;;10.40;;
60730;SDS011;46580;52.114;11.674;2023-03-03T11:14:46;26.73;;;10.57;;
60730;SDS011;46580;52.114;11.674;2023-03-03T11:17:28;21.50;;;11.23;;
60730;SDS011;46580;52.114;11.674;2023-03-03T11:20:27;23.00;;;10.53;;
60730;SDS011;46580;52.114;11.674;2023-03-03T11:23:16;25.07;;;10.93;;
60730;SDS011;46580;52.114;11.674;2023-03-03T11:25:49;19.47;;;9.63;;
60730;SDS011;46580;52.114;11.674;2023-03-03T11:31:01;24.40;;;10.87;;
60730;SDS011;46580;52.114;11.674;2023-03-03T11:36:34;20.47;;;9.93;;
60730;SDS011;46580;52.114;11.674;2023-03-03T11:39:03;23.47;;;9.20;;
60730;SDS011;46580;52.114;11.674;2023-03-03T11:41:40;21.10;;;10.23;;
60730;SDS011;46580;52.114;11.674;2023-03-03T11:44:54;22.10;;;10.03;;
60730;SDS011;46580;52.114;11.674;2023-03-03T11:47:21;19.00;;;9.20;;
60730;SDS011;46580;52.114;11.674;2023-03-03T11:53:04;25.47;;;11.10;;
60730;SDS011;46580;52.114;11.674;2023-03-03T11:55:55;21.40;;;10.37;;
60730;SDS011;46580;52.114;11.674;2023-03-03T11:58:26;21.73;;;10.30;;
60730;SDS011;46580;52.114;11.674;2023-03-03T12:01:00;18.50;;;9.77;;
60730;SDS011;46580;52.114;11.674;2023-03-03T12:12:21;24.13;;;10.33;;
60730;SDS011;46580;52.114;11.674;2023-03-03T12:17:56;22.57;;;10.33;;
60730;SDS011;46580;52.114;11.674;2023-03-03T12:20:43;20.00;;;9.57;;
60730;SDS011;46580;52.114;11.674;2023-03-03T12:26:10;23.30;;;10.53;;
60730;SDS011;46580;52.114;11.674;2023-03-03T12:28:52;20.93;;;10.43;;
60730;SDS011;46580;52.114;11.674;2023-03-03T12:31:33;22.50;;;11.53;;
60730;SDS011;46580;52.114;11.674;2023-03-03T12:42:23;22.27;;;10.53;;
60730;SDS011;46580;52.114;11.674;2023-03-03T12:58:01;25.27;;;11.43;;
60730;SDS011;46580;52.114;11.674;2023-03-03T13:05:44;17.13;;;8.70;;
60730;SDS011;46580;52.114;11.674;2023-03-03T13:11:59;20.00;;;9.00;;
60730;SDS011;46580;52.114;11.674;2023-03-03T13:14:37;21.77;;;11.30;;
60730;SDS011;46580;52.114;11.674;2023-03-03T13:19:55;19.43;;;10.60;;
60730;SDS011;46580;52.114;11.674;2023-03-03T13:25:38;18.70;;;8.50;;
60730;SDS011;46580;52.114;11.674;2023-03-03T13:31:18;16.67;;;9.07;;
60730;SDS011;46580;52.114;11.674;2023-03-03T13:33:54;19.23;;;9.90;;
60730;SDS011;46580;52.114;11.674;2023-03-03T13:36:25;21.27;;;9.80;;
60730;SDS011;46580;52.114;11.674;2023-03-03T13:39:39;16.53;;;8.27;;
60730;SDS011;46580;52.114;11.674;2023-03-03T13:41:48;19.30;;;9.67;;
60730;SDS011;46580;52.114;11.674;2023-03-03T13:49:59;18.23;;;8.37;;
60730;SDS011;46580;52.114;11.674;2023-03-03T13:55:59;15.60;;;8.37;;
60730;SDS011;46580;52.114;11.674;2023-03-03T13:58:33;19.63;;;10.00;;
60730;SDS011;46580;52.114;11.674;2023-03-03T14:01:18;18.20;;;9.03;;
60730;SDS011;46580;52.114;11.674;2023-03-03T14:04:05;12.67;;;7.57;;
60730;SDS011;46580;52.114;11.674;2023-03-03T14:06:39;23.53;;;11.33;;
60730;SDS011;46580;52.114;11.674;2023-03-03T14:09:30;15.93;;;7.80;;
60730;SDS011;46580;52.114;11.674;2023-03-03T14:12:17;14.93;;;8.73;;
60730;SDS011;46580;52.114;11.674;2023-03-03T14:14:57;17.60;;;8.80;;
60730;SDS011;46580;52.114;11.674;2023-03-03T14:17:30;15.43;;;8.70;;
60730;SDS011;46580;52.114;11.674;2023-03-03T14:25:56;17.63;;;8.90;;
60730;SDS011;46580;52.114;11.674;2023-03-03T14:28:27;18.10;;;10.40;;
60730;SDS011;46580;52.114;11.674;2023-03-03T14:30:57;14.93;;;7.80;;
60730;SDS011;46580;52.114;11.674;2023-03-03T14:33:33;15.87;;;9.33;;
60730;SDS011;46580;52.114;11.674;2023-03-03T14:36:01;17.33;;;9.43;;
60730;SDS011;46580;52.114;11.674;2023-03-03T14:43:35;15.40;;;8.80;;
60730;SDS011;46580;52.114;11.674;2023-03-03T14:48:50;18.80;;;8.73;;
60730;SDS011;46580;52.114;11.674;2023-03-03T14:54:07;19.50;;;9.57;;
60730;SDS011;46580;52.114;11.674;2023-03-03T14:56:52;17.27;;;9.03;;
60730;SDS011;46580;52.114;11.674;2023-03-03T14:59:23;17.80;;;9.07;;
60730;SDS011;46580;52.114;11.674;2023-03-03T15:04:42;16.87;;;8.33;;
60730;SDS011;46580;52.114;11.674;2023-03-03T15:09:57;18.73;;;8.90;;
60730;SDS011;46580;52.114;11.674;2023-03-03T15:12:26;19.37;;;8.50;;
60730;SDS011;46580;52.114;11.674;2023-03-03T15:20:01;16.57;;;7.87;;
60730;SDS011;46580;52.114;11.674;2023-03-03T15:25:27;20.47;;;10.10;;
60730;SDS011;46580;52.114;11.674;2023-03-03T15:31:15;21.20;;;8.60;;
60730;SDS011;46580;52.114;11.674;2023-03-03T15:37:07;22.20;;;8.60;;
60730;SDS011;46580;52.114;11.674;2023-03-03T15:42:41;16.37;;;8.17;;
60730;SDS011;46580;52.114;11.674;2023-03-03T15:45:14;15.87;;;8.47;;
60730;SDS011;46580;52.114;11.674;2023-03-03T15:56:24;21.93;;;10.00;;
60730;SDS011;46580;52.114;11.674;2023-03-03T16:02:12;18.43;;;9.57;;
60730;SDS011;46580;52.114;11.674;2023-03-03T16:05:24;16.00;;;8.37;;
60730;SDS011;46580;52.114;11.674;2023-03-03T16:23:53;22.90;;;10.00;;
60730;SDS011;46580;52.114;11.674;2023-03-03T16:26:44;23.17;;;11.03;;
60730;SDS011;46580;52.114;11.674;2023-03-03T16:32:23;22.93;;;11.17;;
60730;SDS011;46580;52.114;11.674;2023-03-03T16:40:32;23.60;;;9.63;;
60730;SDS011;46580;52.114;11.674;2023-03-03T16:45:38;24.20;;;10.50;;
60730;SDS011;46580;52.114;11.674;2023-03-03T16:48:13;20.07;;;9.57;;
60730;SDS011;46580;52.114;11.674;2023-03-03T16:53:45;22.50;;;10.97;;
60730;SDS011;46580;52.114;11.674;2023-03-03T16:56:19;22.63;;;9.73;;
60730;SDS011;46580;52.114;11.674;2023-03-03T17:04:06;23.17;;;10.07;;
60730;SDS011;46580;52.114;11.674;2023-03-03T17:15:16;24.20;;;10.53;;
60730;SDS011;46580;52.114;11.674;2023-03-03T17:20:49;26.13;;;12.03;;
60730;SDS011;46580;52.114;11.674;2023-03-03T17:29:22;29.27;;;12.20;;
60730;SDS011;46580;52.114;11.674;2023-03-03T17:31:56;27.83;;;12.63;;
60730;SDS011;46580;52.114;11.674;2023-03-03T17:35:23;25.57;;;12.57;;
60730;SDS011;46580;52.114;11.674;2023-03-03T17:40:54;28.50;;;13.40;;
60730;SDS011;46580;52.114;11.674;2023-03-03T17:43:28;23.23;;;12.03;;
60730;SDS011;46580;52.114;11.674;2023-03-03T17:46:00;25.83;;;12.83;;
60730;SDS011;46580;52.114;11.674;2023-03-03T17:51:30;27.40;;;12.53;;
60730;SDS011;46580;52.114;11.674;2023-03-03T18:16:50;31.77;;;14.70;;
60730;SDS011;46580;52.114;11.674;2023-03-03T18:22:32;28.97;;;12.90;;
60730;SDS011;46580;52.114;11.674;2023-03-03T18:25:09;27.87;;;13.50;;
60730;SDS011;46580;52.114;11.674;2023-03-03T18:27:36;33.63;;;14.07;;
60730;SDS011;46580;52.114;11.674;2023-03-03T18:33:12;32.77;;;16.07;;
60730;SDS011;46580;52.114;11.674;2023-03-03T18:35:39;30.00;;;14.70;;
60730;SDS011;46580;52.114;11.674;2023-03-03T18:49:02;31.57;;;14.37;;
60730;SDS011;46580;52.114;11.674;2023-03-03T19:04:47;30.50;;;14.03;;
60730;SDS011;46580;52.114;11.674;2023-03-03T19:12:52;25.73;;;12.87;;
60730;SDS011;46580;52.114;11.674;2023-03-03T19:20:53;33.70;;;14.63;;
60730;SDS011;46580;52.114;11.674;2023-03-03T19:49:11;28.77;;;13.83;;
60730;SDS011;46580;52.114;11.674;2023-03-03T19:52:13;32.07;;;14.03;;
60730;SDS011;46580;52.114;11.674;2023-03-03T19:55:10;32.80;;;15.97;;
60730;SDS011;46580;52.114;11.674;2023-03-03T19:57:49;41.53;;;17.40;;
60730;SDS011;46580;52.114;11.674;2023-03-03T20:00:43;43.47;;;18.57;;
60730;SDS011;46580;52.114;11.674;2023-03-03T20:06:11;46.20;;;19.77;;
60730;SDS011;46580;52.114;11.674;2023-03-03T20:08:40;48.57;;;22.17;;
60730;SDS011;46580;52.114;11.674;2023-03-03T20:14:30;56.97;;;22.93;;
60730;SDS011;46580;52.114;11.674;2023-03-03T20:19:55;63.20;;;24.00;;
60730;SDS011;46580;52.114;11.674;2023-03-03T20:22:35;61.10;;;24.87;;
60730;SDS011;46580;52.114;11.674;2023-03-03T20:43:58;63.00;;;26.27;;
60730;SDS011;46580;52.114;11.674;2023-03-03T20:46:54;69.93;;;25.37;;
60730;SDS011;46580;52.114;11.674;2023-03-03T20:57:44;51.43;;;19.23;;
60730;SDS011;46580;52.114;11.674;2023-03-03T21:03:34;42.13;;;17.97;;
60730;SDS011;46580;52.114;11.674;2023-03-03T21:06:05;42.70;;;17.33;;
60730;SDS011;46580;52.114;11.674;2023-03-03T21:11:14;35.27;;;15.10;;
60730;SDS011;46580;52.114;11.674;2023-03-03T21:13:43;27.77;;;14.33;;
60730;SDS011;46580;52.114;11.674;2023-03-03T21:19:00;26.00;;;13.00;;
60730;SDS011;46580;52.114;11.674;2023-03-03T21:21:32;26.97;;;12.83;;
60730;SDS011;46580;52.114;11.674;2023-03-03T21:24:00;28.30;;;11.97;;
60730;SDS011;46580;52.114;11.674;2023-03-03T21:29:31;22.57;;;11.03;;
60730;SDS011;46580;52.114;11.674;2023-03-03T21:31:59;31.30;;;12.83;;
60730;SDS011;46580;52.114;11.674;2023-03-03T21:34:39;30.73;;;12.80;;